Polikhnitos, Greece
Current Conditions -  °F | °C
As of 4:20 PM on Monday 26 Jan 2015 (Local Time) from LGMT Reporting Station
Broken Clouds Broken Clouds  
Wind Chill: 54°   Ceiling: 8000
Heat Index: 54°   Visibility: 6mi
Dew Point: 48°   Wind: 0mph
Humidity: 82%   Direction: NA
Pressure: 30.03"   Gusts: NA
Location:  39.08°N, 26.18°E
Report Text: LGMT 261420Z 00000KT 9999 FEW016TCU SCT020 BKN080 12/09 Q1017
Loading
Personal Weather Stations






























Interactive Weather Map New forecast layout! Learn more

10-Day Weather Forecast

Advertisements
Track Severe Weather on mobile